Terminal Aerodrome Forecast
Issued by NWS Amarillo, TX

Home | Current Version | Previous Version | Text Only | Print | Product List | Glossary On
Versions: 1 2 3 4 5 6 7 8 9 10 11 12 13 14 15 16 17
000
FTUS44 KAMA 210500
TAFDHT
TAF
KDHT 210520Z 2106/2206 30007KT P6SM BKN120
     FM210800 35015KT P6SM SCT120 BKN200
     FM211300 01018G28KT P6SM SCT080
     FM212000 04013KT P6SM BKN200
     FM220100 07007KT P6SM SCT200=

USA.gov is the U.S. government's official web portal to all federal, state and local government web resources and services.